createdAt,value
2022-11-05T00:02:03.009Z,100139.38
2022-11-05T00:04:49.157Z,100141.13
2022-11-05T00:07:38.158Z,100141.13
2022-11-05T00:10:19.241Z,100148.19
2022-11-05T00:13:05.268Z,100151.72
2022-11-05T00:15:53.000Z,100148.19
2022-11-05T00:18:21.702Z,100145.53
2022-11-05T00:20:50.339Z,100154.34
2022-11-05T00:23:36.223Z,100159.59
2022-11-05T00:26:06.774Z,100171.00
2022-11-05T00:28:36.381Z,100166.63
2022-11-05T00:31:11.028Z,100170.09
2022-11-05T00:33:39.680Z,100168.41
2022-11-05T00:36:10.268Z,100171.91
2022-11-05T00:38:38.928Z,100171.03
2022-11-05T00:41:07.909Z,100178.06
2022-11-05T00:43:53.816Z,100177.19
2022-11-05T00:46:24.445Z,100185.94
2022-11-05T00:49:10.416Z,100183.28
2022-11-05T00:51:39.014Z,100189.44
2022-11-05T00:54:07.638Z,100189.38
2022-11-05T00:56:36.254Z,100195.53
2022-11-05T00:59:04.870Z,100199.00
2022-11-05T01:01:34.969Z,100198.09
2022-11-05T01:04:03.814Z,100196.41
2022-11-05T01:06:32.448Z,100197.25
2022-11-05T01:09:01.089Z,100206.06
2022-11-05T01:11:37.021Z,100206.03
2022-11-05T01:14:08.976Z,100211.19
2022-11-05T01:16:39.758Z,100213.06
2022-11-05T01:19:11.229Z,100209.53
2022-11-05T01:21:40.096Z,100213.91
2022-11-05T01:24:10.434Z,100220.91
2022-11-05T01:26:39.094Z,100212.94
2022-11-05T01:29:07.799Z,100215.63
2022-11-05T01:31:37.919Z,100211.19
2022-11-05T01:34:06.600Z,100222.69
2022-11-05T01:36:35.163Z,100221.88
2022-11-05T01:39:03.870Z,100221.91
2022-11-05T01:41:32.491Z,100219.25
2022-11-05T01:44:01.527Z,100216.56
2022-11-05T01:46:36.088Z,100181.06
2022-11-05T01:49:16.648Z,100214.81
2022-11-05T01:51:47.074Z,100221.03
2022-11-05T01:54:18.213Z,100227.13
2022-11-05T01:56:52.788Z,100088.09
2022-11-05T01:59:27.225Z,100223.59
2022-11-05T02:01:56.523Z,100224.47
2022-11-05T02:04:32.357Z,100231.47
2022-11-05T02:07:01.583Z,100226.13
2022-11-05T02:09:34.480Z,100236.66
2022-11-05T02:12:03.391Z,100236.69
2022-11-05T02:14:31.975Z,100239.34
2022-11-05T02:17:09.847Z,100217.63
2022-11-05T02:20:10.036Z,100247.22
2022-11-05T02:23:10.632Z,100257.78
2022-11-05T02:26:22.575Z,100247.22
2022-11-05T02:29:42.048Z,100257.72
2022-11-05T02:32:18.870Z,100257.63
2022-11-05T02:34:56.280Z,100255.88
2022-11-05T02:37:33.098Z,100255.00
2022-11-05T02:40:16.776Z,100257.63
2022-11-05T02:42:56.781Z,100272.59
2022-11-05T02:45:42.119Z,100263.78
2022-11-05T02:48:22.803Z,100276.16
2022-11-05T02:50:59.311Z,100277.00
2022-11-05T02:53:35.519Z,100275.22
2022-11-05T02:56:11.116Z,100244.19
2022-11-05T02:58:39.707Z,100285.81
2022-11-05T03:01:10.665Z,100294.63
2022-11-05T03:03:44.269Z,100281.59
2022-11-05T03:06:37.851Z,100291.16
2022-11-05T03:09:22.653Z,100293.00
2022-11-05T03:12:04.065Z,100287.84
2022-11-05T03:14:44.756Z,100290.41
2022-11-05T03:17:28.045Z,100289.59
2022-11-05T03:20:08.668Z,100296.66
2022-11-05T03:22:42.552Z,100294.97
2022-11-05T03:25:19.246Z,100284.66
2022-11-05T03:27:51.970Z,100317.09
2022-11-05T03:30:21.091Z,100324.06
2022-11-05T03:32:55.648Z,100323.25
2022-11-05T03:35:30.136Z,100303.38
2022-11-05T03:38:02.993Z,100339.19
2022-11-05T03:40:36.234Z,100344.47
2022-11-05T03:43:09.990Z,100342.56
2022-11-05T03:45:43.238Z,100357.66
2022-11-05T03:48:16.479Z,100351.53
2022-11-05T03:50:53.719Z,100354.16
2022-11-05T03:53:28.117Z,100353.31
2022-11-05T03:56:01.907Z,100359.63
2022-11-05T03:58:31.959Z,100359.69
2022-11-05T04:01:04.201Z,100371.97
2022-11-05T04:03:36.209Z,100370.19
2022-11-05T04:06:25.998Z,100370.16
2022-11-05T04:09:11.880Z,100367.66
2022-11-05T04:11:57.771Z,100374.72
2022-11-05T04:14:27.178Z,100380.03
2022-11-05T04:17:06.689Z,100385.28
2022-11-05T04:19:49.362Z,100389.72
2022-11-05T04:22:36.677Z,100389.75
2022-11-05T04:25:05.737Z,100392.41
2022-11-05T04:27:34.333Z,100392.34
2022-11-05T04:30:20.835Z,100390.63
2022-11-05T04:33:02.072Z,100364.63
2022-11-05T04:35:32.987Z,100403.81
2022-11-05T04:38:03.085Z,100413.31
2022-11-05T04:40:31.699Z,100401.00
2022-11-05T04:43:00.677Z,100408.00
2022-11-05T04:45:33.021Z,100340.19
2022-11-05T04:48:01.736Z,100418.53
2022-11-05T04:50:30.958Z,100419.41
2022-11-05T04:52:59.956Z,100427.22
2022-11-05T04:55:29.961Z,100428.09
2022-11-05T04:57:58.604Z,100432.50
2022-11-05T05:00:27.360Z,100432.50
2022-11-05T05:02:56.148Z,100423.69
2022-11-05T05:05:24.698Z,100441.28
2022-11-05T05:07:53.362Z,100441.31
2022-11-05T05:10:21.914Z,100441.28
2022-11-05T05:12:51.895Z,100444.78
2022-11-05T05:15:20.571Z,100452.69
2022-11-05T05:17:52.652Z,100446.47
2022-11-05T05:20:39.036Z,100450.84
2022-11-05T05:23:07.792Z,100458.78
2022-11-05T05:25:36.558Z,100456.97
2022-11-05T05:28:06.773Z,100469.31
2022-11-05T05:30:35.682Z,100464.03
2022-11-05T05:33:04.979Z,100472.06
2022-11-05T05:35:33.783Z,100474.78
2022-11-05T05:38:02.426Z,100481.88
2022-11-05T05:40:31.079Z,100493.34
2022-11-05T05:42:59.690Z,100493.38
2022-11-05T05:45:29.733Z,100514.47
2022-11-05T05:47:58.448Z,100506.53
2022-11-05T05:50:27.089Z,100515.34
2022-11-05T05:52:55.710Z,100512.72
2022-11-05T05:55:24.324Z,100507.47
2022-11-05T05:57:53.094Z,100512.75
2022-11-05T06:00:21.823Z,100518.03
2022-11-05T06:02:51.880Z,100515.44
2022-11-05T06:05:20.721Z,100509.34
2022-11-05T06:07:55.736Z,100514.69
2022-11-05T06:10:24.623Z,100512.88
2022-11-05T06:12:53.272Z,100512.09
2022-11-05T06:15:21.873Z,100520.06
2022-11-05T06:17:51.849Z,100523.63
2022-11-05T06:20:20.705Z,100531.56
2022-11-05T06:22:56.254Z,100530.63
2022-11-05T06:25:25.164Z,100523.56
2022-11-05T06:27:54.690Z,100527.00
2022-11-05T06:30:24.160Z,100533.16
2022-11-05T06:32:54.343Z,100530.47
2022-11-05T06:35:22.922Z,100539.25
2022-11-05T06:37:51.559Z,100546.25
2022-11-05T06:40:20.809Z,100555.03
2022-11-05T06:42:53.682Z,100554.97
2022-11-05T06:45:22.622Z,100558.47
2022-11-05T06:47:57.124Z,100567.22
2022-11-05T06:50:25.896Z,100568.94
2022-11-05T06:52:55.789Z,100570.63
2022-11-05T06:55:25.266Z,100564.34
2022-11-05T06:57:53.933Z,100575.75
2022-11-05T07:00:23.053Z,100574.78
2022-11-05T07:02:53.297Z,100575.56
2022-11-05T07:05:21.949Z,100572.91
2022-11-05T07:07:50.776Z,100580.78
2022-11-05T07:10:20.448Z,100582.47
2022-11-05T07:12:49.108Z,100587.72
2022-11-05T07:15:17.877Z,100587.59
2022-11-05T07:17:46.591Z,100593.66
2022-11-05T07:20:16.744Z,100592.69
2022-11-05T07:22:45.492Z,100593.44
2022-11-05T07:25:14.149Z,100589.00
2022-11-05T07:27:43.701Z,100601.25
2022-11-05T07:30:13.007Z,100608.28
2022-11-05T07:32:42.421Z,100607.41
2022-11-05T07:35:11.801Z,100612.56
2022-11-05T07:37:45.661Z,100612.41
2022-11-05T07:40:15.747Z,100621.13
2022-11-05T07:42:45.204Z,100629.06
2022-11-05T07:45:14.642Z,100628.94
2022-11-05T07:47:48.466Z,100631.59
2022-11-05T07:50:18.747Z,100631.53
2022-11-05T07:52:49.578Z,100638.53
2022-11-05T07:55:19.862Z,100636.78
2022-11-05T07:57:49.835Z,100645.47
2022-11-05T08:00:21.514Z,100648.78
2022-11-05T08:03:06.850Z,100648.69
2022-11-05T08:05:38.725Z,100642.59
2022-11-05T08:08:10.421Z,100602.34
2022-11-05T08:10:39.421Z,100645.06
2022-11-05T08:13:09.729Z,100551.00
2022-11-05T08:15:38.795Z,100650.25
2022-11-05T08:18:09.312Z,100651.81
2022-11-05T08:20:38.908Z,100659.69
2022-11-05T08:23:09.288Z,100662.16
2022-11-05T08:25:38.410Z,100668.41
2022-11-05T08:28:09.006Z,100665.09
2022-11-05T08:30:38.208Z,100671.66
2022-11-05T08:33:09.475Z,100672.56
2022-11-05T08:35:39.615Z,100680.56
2022-11-05T08:38:13.639Z,100686.50
2022-11-05T08:40:43.413Z,100676.63
2022-11-05T08:43:15.017Z,100681.84
2022-11-05T08:45:43.938Z,100680.88
2022-11-05T08:48:15.492Z,100679.94
2022-11-05T08:50:44.879Z,100686.16
2022-11-05T08:53:15.484Z,100690.78
2022-11-05T08:55:46.500Z,100699.00
2022-11-05T08:58:17.091Z,100699.28
2022-11-05T09:00:48.583Z,100671.41
2022-11-05T09:03:17.582Z,100700.63
2022-11-05T09:05:46.306Z,100696.47
2022-11-05T09:08:18.305Z,100693.81
2022-11-05T09:10:48.005Z,100709.13
2022-11-05T09:13:19.480Z,100710.63
2022-11-05T09:15:49.519Z,100726.38
2022-11-05T09:18:21.954Z,100721.97
2022-11-05T09:20:50.582Z,100717.94
2022-11-05T09:23:20.664Z,100717.84
2022-11-05T09:25:49.588Z,100718.06
2022-11-05T09:28:20.277Z,100723.59
2022-11-05T09:30:50.906Z,100731.22
2022-11-05T09:33:22.031Z,100739.53
2022-11-05T09:35:51.715Z,100742.47
2022-11-05T09:38:21.845Z,100743.50
2022-11-05T09:40:57.465Z,100749.59
2022-11-05T09:43:32.287Z,100752.16
2022-11-05T09:46:08.582Z,100743.22
2022-11-05T09:48:40.007Z,100750.31
2022-11-05T09:51:09.701Z,100748.88
2022-11-05T09:53:42.175Z,100743.81
2022-11-05T09:56:24.147Z,100706.28
2022-11-05T09:58:58.349Z,100749.09
2022-11-05T10:01:32.307Z,100753.44
2022-11-05T10:04:08.644Z,100679.13
2022-11-05T10:06:45.761Z,100757.53
2022-11-05T10:09:23.650Z,100767.84
2022-11-05T10:11:57.975Z,100766.66
2022-11-05T10:14:31.792Z,100653.88
2022-11-05T10:17:07.773Z,100753.53
2022-11-05T10:19:44.462Z,100777.09
2022-11-05T10:22:16.289Z,100772.72
2022-11-05T10:24:48.170Z,100775.50
2022-11-05T10:27:21.213Z,100780.84
2022-11-05T10:29:50.766Z,100778.34
2022-11-05T10:32:30.741Z,100779.19
2022-11-05T10:35:02.032Z,100792.47
2022-11-05T10:37:39.634Z,100784.66
2022-11-05T10:40:20.789Z,100796.06
2022-11-05T10:43:03.052Z,100790.59
2022-11-05T10:45:41.458Z,100793.72
2022-11-05T10:48:27.391Z,100801.47
2022-11-05T10:50:56.199Z,100806.38
2022-11-05T10:53:30.036Z,100810.09
2022-11-05T10:56:00.059Z,100810.50
2022-11-05T10:58:30.607Z,100815.28
2022-11-05T11:01:07.329Z,100808.81
2022-11-05T11:03:43.243Z,100814.41
2022-11-05T11:06:26.027Z,100811.53
2022-11-05T11:08:57.014Z,100823.25
2022-11-05T11:11:34.550Z,100827.22
2022-11-05T11:14:06.692Z,100832.59
2022-11-05T11:16:41.471Z,100826.81
2022-11-05T11:19:27.242Z,100830.47
2022-11-05T11:22:18.958Z,100823.88
2022-11-05T11:24:49.648Z,100825.66
2022-11-05T11:27:25.898Z,100823.69
2022-11-05T11:29:59.899Z,100823.31
2022-11-05T11:32:34.466Z,100822.66
2022-11-05T11:35:03.680Z,100824.63
2022-11-05T11:37:35.736Z,100825.47
2022-11-05T11:40:13.970Z,100824.63
2022-11-05T11:42:48.295Z,100825.28
2022-11-05T11:45:19.539Z,100827.44
2022-11-05T11:47:50.401Z,100827.47
2022-11-05T11:50:37.019Z,100820.63
2022-11-05T11:53:26.923Z,100828.78
2022-11-05T11:56:01.869Z,100794.63
2022-11-05T11:58:41.085Z,100820.47
2022-11-05T12:01:52.880Z,100817.31
2022-11-05T12:04:43.593Z,100821.25
2022-11-05T12:07:26.240Z,100820.22
2022-11-05T12:10:12.243Z,100828.03
2022-11-05T12:12:53.128Z,100828.88
2022-11-05T12:15:42.154Z,100835.06
2022-11-05T12:18:20.774Z,100833.03
2022-11-05T12:21:08.906Z,100833.44
2022-11-05T12:23:54.951Z,100838.75
2022-11-05T12:26:30.983Z,100832.81
2022-11-05T12:29:24.913Z,100832.88
2022-11-05T12:32:11.743Z,100833.75
2022-11-05T12:34:57.416Z,100831.97
2022-11-05T12:37:38.438Z,100769.19
2022-11-05T12:40:37.235Z,100834.66
2022-11-05T12:43:13.088Z,100838.16
2022-11-05T12:45:50.835Z,100843.44
2022-11-05T12:48:54.961Z,100849.53
2022-11-05T12:51:35.161Z,100852.22
2022-11-05T12:54:18.236Z,100845.16
2022-11-05T12:56:50.368Z,100841.69
2022-11-05T12:59:25.648Z,100845.00
2022-11-05T13:02:02.917Z,100844.50
2022-11-05T13:04:42.584Z,100849.25
2022-11-05T13:07:17.089Z,100847.09
2022-11-05T13:09:52.360Z,100849.78
2022-11-05T13:12:26.407Z,100843.03
2022-11-05T13:15:01.010Z,100753.53
2022-11-05T13:17:35.191Z,100851.41
2022-11-05T13:20:17.343Z,100848.16
2022-11-05T13:22:48.096Z,100850.84
2022-11-05T13:25:22.412Z,100859.53
2022-11-05T13:28:03.638Z,100751.00
2022-11-05T13:30:38.242Z,100867.41
2022-11-05T13:33:13.561Z,100849.91
2022-11-05T13:36:13.205Z,100854.47
2022-11-05T13:39:00.396Z,100865.19
2022-11-05T13:41:44.373Z,100867.13
2022-11-05T13:44:36.984Z,100867.22
2022-11-05T13:47:23.831Z,100869.13
2022-11-05T13:50:23.589Z,100871.00
2022-11-05T13:53:15.707Z,100876.44
2022-11-05T13:56:03.918Z,100880.16
2022-11-05T13:59:05.014Z,100834.03
2022-11-05T14:01:49.236Z,100875.22
2022-11-05T14:04:32.518Z,100871.75
2022-11-05T14:07:11.041Z,100881.53
2022-11-05T14:09:42.944Z,100877.16
2022-11-05T14:12:22.258Z,100879.81
2022-11-05T14:14:58.670Z,100868.59
2022-11-05T14:17:32.258Z,100883.44
2022-11-05T14:20:25.374Z,100887.81
2022-11-05T14:22:54.427Z,100886.03
2022-11-05T14:25:56.862Z,100894.81
2022-11-05T14:28:49.138Z,100860.53
2022-11-05T14:31:54.439Z,100889.19
2022-11-05T14:34:23.892Z,100896.91
2022-11-05T14:37:19.951Z,100896.34
2022-11-05T14:39:48.972Z,100900.38
2022-11-05T14:42:24.134Z,100908.06
2022-11-05T14:45:07.540Z,100913.94
2022-11-05T14:47:41.744Z,100914.75
2022-11-05T14:50:17.178Z,100927.19
2022-11-05T14:52:54.242Z,100923.22
2022-11-05T14:55:34.147Z,100901.66
2022-11-05T14:58:26.844Z,100932.41
2022-11-05T15:00:56.796Z,100931.75
2022-11-05T15:04:17.463Z,100853.97
2022-11-05T15:07:15.370Z,100922.97
2022-11-05T15:09:48.615Z,100929.00
2022-11-05T15:12:23.352Z,100917.50
2022-11-05T15:14:59.032Z,100921.97
2022-11-05T15:17:30.757Z,100923.09
2022-11-05T15:20:10.866Z,100912.78
2022-11-05T15:22:43.414Z,100921.84
2022-11-05T15:25:20.508Z,100921.13
2022-11-05T15:28:00.105Z,100917.72
2022-11-05T15:30:30.199Z,100924.09
2022-11-05T15:33:10.944Z,100919.00
2022-11-05T15:35:42.502Z,100917.56
2022-11-05T15:38:29.914Z,100925.88
2022-11-05T15:41:03.744Z,100923.44
2022-11-05T15:43:32.672Z,100923.56
2022-11-05T15:46:05.721Z,100929.81
2022-11-05T15:48:35.469Z,100935.22
2022-11-05T15:51:04.457Z,100938.88
2022-11-05T15:53:56.128Z,100930.19
2022-11-05T15:56:29.720Z,100934.69
2022-11-05T15:59:02.521Z,100943.53
2022-11-05T16:01:35.343Z,100942.69
2022-11-05T16:04:14.998Z,100948.00
2022-11-05T16:06:48.078Z,100949.78
2022-11-05T16:09:24.110Z,100954.19
2022-11-05T16:12:10.731Z,100959.47
2022-11-05T16:14:39.565Z,100955.09
2022-11-05T16:17:22.543Z,100954.22
2022-11-05T16:19:52.116Z,100945.47
2022-11-05T16:22:21.184Z,100956.03
2022-11-05T16:24:50.597Z,100953.38
2022-11-05T16:27:21.637Z,100947.28
2022-11-05T16:29:53.068Z,100952.53
2022-11-05T16:32:31.239Z,100952.53
2022-11-05T16:35:03.540Z,100963.06
2022-11-05T16:37:46.362Z,100963.09
2022-11-05T16:40:20.536Z,100974.50
2022-11-05T16:42:51.595Z,100968.34
2022-11-05T16:45:22.683Z,100975.38
2022-11-05T16:47:53.220Z,100974.50
2022-11-05T16:50:25.271Z,100982.38
2022-11-05T16:52:54.967Z,100981.50
2022-11-05T16:55:24.385Z,100976.25
2022-11-05T16:57:55.763Z,100973.63
2022-11-05T17:00:25.855Z,100917.47
2022-11-05T17:02:56.483Z,100984.97
2022-11-05T17:05:28.744Z,100979.72
2022-11-05T17:07:58.033Z,100986.72
2022-11-05T17:10:28.990Z,100991.97
2022-11-05T17:12:57.759Z,101006.84
2022-11-05T17:15:29.209Z,101010.34
2022-11-05T17:18:00.497Z,101014.72
2022-11-05T17:20:39.810Z,100978.72
2022-11-05T17:23:11.023Z,101016.41
2022-11-05T17:25:40.438Z,101018.13
2022-11-05T17:28:11.296Z,101024.28
2022-11-05T17:30:41.922Z,101019.03
2022-11-05T17:33:13.254Z,101020.78
2022-11-05T17:35:42.920Z,101026.91
2022-11-05T17:38:11.946Z,101031.25
2022-11-05T17:40:41.116Z,101027.72
2022-11-05T17:43:10.380Z,101023.31
2022-11-05T17:45:44.134Z,101030.31
2022-11-05T17:48:15.688Z,101032.03
2022-11-05T17:50:46.934Z,101028.47
2022-11-05T17:53:17.131Z,101031.97
2022-11-05T17:58:31.093Z,101044.28
2022-11-05T18:01:00.256Z,101043.38
2022-11-05T18:03:30.815Z,101052.13
2022-11-05T18:06:03.364Z,101004.63
2022-11-05T18:08:33.130Z,101055.56
2022-11-05T18:11:02.313Z,101059.03
2022-11-05T18:13:31.043Z,101059.88
2022-11-05T18:16:01.308Z,101068.59
2022-11-05T18:18:32.298Z,101064.19
2022-11-05T18:21:01.208Z,101059.81
2022-11-05T18:23:30.246Z,101059.81
2022-11-05T18:25:59.144Z,101061.56
2022-11-05T18:28:31.088Z,101063.31
2022-11-05T18:31:00.087Z,101068.56
2022-11-05T18:33:30.673Z,101072.03
2022-11-05T18:35:59.904Z,101067.63
2022-11-05T18:38:28.418Z,101075.50
2022-11-05T18:40:57.097Z,101068.41
2022-11-05T18:43:25.721Z,101077.13
2022-11-05T18:45:57.259Z,101078.81
2022-11-05T18:48:26.745Z,101073.56
2022-11-05T18:51:01.692Z,101081.44
2022-11-05T18:53:31.644Z,101077.03
2022-11-05T18:56:00.639Z,101078.78
2022-11-05T18:58:29.560Z,101080.56
2022-11-05T19:01:02.603Z,101078.78
2022-11-05T19:03:35.513Z,101073.50
2022-11-05T19:06:06.359Z,101074.34
2022-11-05T19:08:35.730Z,101052.38
2022-11-05T19:11:11.501Z,101076.06
2022-11-05T19:13:40.842Z,101076.91
2022-11-05T19:16:11.118Z,101081.25
2022-11-05T19:18:40.398Z,101074.22
2022-11-05T19:21:13.295Z,101080.34
2022-11-05T19:23:41.986Z,101080.38
2022-11-05T19:26:13.304Z,101076.06
2022-11-05T19:28:42.539Z,101077.88
2022-11-05T19:31:14.878Z,101071.78
2022-11-05T19:33:44.318Z,101079.66
2022-11-05T19:36:16.078Z,101082.25
2022-11-05T19:38:44.917Z,101076.94
2022-11-05T19:41:15.627Z,101076.88
2022-11-05T19:43:44.779Z,101076.00
2022-11-05T19:46:17.554Z,101084.69
2022-11-05T19:48:47.136Z,101083.78
2022-11-05T19:51:19.759Z,101086.41
2022-11-05T19:53:48.696Z,101094.31
2022-11-05T19:56:19.926Z,101090.81
2022-11-05T19:58:49.186Z,101096.91
2022-11-05T20:01:24.618Z,101016.88
2022-11-05T20:03:53.925Z,101100.41
2022-11-05T20:06:28.704Z,101100.38
2022-11-05T20:09:20.505Z,101105.59
2022-11-05T20:11:55.303Z,101103.78
2022-11-05T20:14:25.180Z,101102.03
2022-11-05T20:16:54.807Z,101108.13
2022-11-05T20:19:24.594Z,101108.13
2022-11-05T20:21:55.239Z,101110.69
2022-11-05T20:24:25.622Z,101114.16
2022-11-05T20:26:58.150Z,101117.72
2022-11-05T20:29:33.885Z,101127.31
2022-11-05T20:32:04.906Z,101130.78
2022-11-05T20:34:37.254Z,101134.25
2022-11-05T20:37:14.756Z,101124.66
2022-11-05T20:39:47.626Z,101128.19
2022-11-05T20:42:22.726Z,101127.25
2022-11-05T20:44:57.512Z,101135.06
2022-11-05T20:47:48.348Z,101133.28
2022-11-05T20:50:18.827Z,101134.97
2022-11-05T20:52:49.813Z,101134.97
2022-11-05T20:55:18.743Z,101134.09
2022-11-05T20:57:47.687Z,101133.22
2022-11-05T21:00:17.697Z,101137.53
2022-11-05T21:02:54.736Z,101139.31
2022-11-05T21:05:32.663Z,101134.91
2022-11-05T21:08:09.309Z,101131.41
2022-11-05T21:10:40.913Z,101129.63
2022-11-05T21:13:12.305Z,101127.88
2022-11-05T21:15:46.432Z,101127.84
2022-11-05T21:18:15.379Z,101134.81
2022-11-05T21:20:45.096Z,101131.31
2022-11-05T21:23:16.613Z,101128.63
2022-11-05T21:25:47.086Z,101125.09
2022-11-05T21:28:17.825Z,101139.94
2022-11-05T21:30:49.244Z,101146.97
2022-11-05T21:33:20.802Z,101141.69
2022-11-05T21:35:51.850Z,101151.22
2022-11-05T21:38:25.228Z,101146.84
2022-11-05T21:40:55.668Z,101150.31
2022-11-05T21:43:26.661Z,101152.03
2022-11-05T21:45:59.665Z,101159.91
2022-11-05T21:48:29.899Z,101150.34
2022-11-05T21:51:15.971Z,101153.78
2022-11-05T21:54:03.477Z,101153.78
2022-11-05T21:56:50.374Z,101150.31
2022-11-05T21:59:40.420Z,101148.53
2022-11-05T22:02:15.428Z,101146.78
2022-11-05T22:04:46.332Z,101133.63
2022-11-05T22:07:17.258Z,101133.72
2022-11-05T22:09:47.760Z,101131.94
2022-11-05T22:12:17.074Z,101125.81
2022-11-05T22:14:45.711Z,101129.28
2022-11-05T22:17:15.685Z,101127.50
2022-11-05T22:19:44.999Z,101130.13
2022-11-05T22:22:14.891Z,101130.09
2022-11-05T22:24:44.095Z,101127.41
2022-11-05T22:27:20.092Z,101137.94
2022-11-05T22:29:49.466Z,101136.22
2022-11-05T22:32:22.307Z,101071.09
2022-11-05T22:34:51.916Z,101144.97
2022-11-05T22:37:23.366Z,101137.97
2022-11-05T22:39:54.057Z,101138.84
2022-11-05T22:42:26.730Z,101136.16
2022-11-05T22:44:55.561Z,101144.03
2022-11-05T22:47:24.267Z,101141.44
2022-11-05T22:49:53.098Z,101140.59
2022-11-05T22:52:22.954Z,101136.19
2022-11-05T22:54:53.427Z,101138.84
2022-11-05T22:57:23.717Z,101139.72
2022-11-05T22:59:52.414Z,101136.25
2022-11-05T23:02:21.314Z,101144.09
2022-11-05T23:04:52.047Z,101141.47
2022-11-05T23:07:37.962Z,101143.22
2022-11-05T23:10:24.750Z,101143.16
2022-11-05T23:12:56.436Z,101121.09
2022-11-05T23:15:42.422Z,101144.72
2022-11-05T23:18:28.720Z,101135.09
2022-11-05T23:21:17.950Z,101147.28
2022-11-05T23:24:05.260Z,101148.13
2022-11-05T23:26:54.063Z,101146.34
2022-11-05T23:29:27.933Z,101086.63
2022-11-05T23:32:14.492Z,101141.13
2022-11-05T23:34:43.208Z,101143.75
2022-11-05T23:37:29.212Z,101150.72
2022-11-05T23:39:57.926Z,101148.03
2022-11-05T23:42:45.895Z,101151.47
2022-11-05T23:45:33.505Z,101153.16
2022-11-05T23:48:17.629Z,101015.00
2022-11-05T23:50:48.319Z,101149.63
2022-11-05T23:53:17.337Z,101154.81
2022-11-05T23:55:48.215Z,101147.78
2022-11-05T23:58:17.399Z,101153.00
